메인 페이지
METAR-TAF:

METAR-TAF

공항 :

누악쇼트, 모리타니

위도: 18-18-36N, 경도: 015-58-11W, 고도: 3m

현재 날씨관측

예보는 39분 전, 22:30시(UTC)에 발표되었습니다.
14kt
온도 22°C
습도 73%
기압 1011 hPa
시정 10km 이상
1500m 미만 상공 구름 및 적란운 없음

METAR: GQNO 232230Z 35014KT CAVOK 22/17 Q1011 NOSIG

시각: 23:09 (23:09 UTC)

예보

예보는 6 시간 9분 전, 17:00시(UTC)에 발표되었습니다.
예보 대상 시간: 23일 18시부터 24일 24시까지 (UTC)
15kt
시정: 8000m
전환 중
24일 09시부터 24일 11시까지 (UTC)
동북동14kt
확률 30% :
일시적
24일 10시부터 24일 15시까지 (UTC)
시정: 4500m
날린모래
전환 중
24일 16시부터 24일 18시까지 (UTC)
북북서12kt

TAF: GQNO 231700Z 2318/2424 35015KT 8000 NSC BECMG 2409/2411 06014KT PROB30 TEMPO 2410/2415 4500 BLSA BECMG 2416/2418 34012KT

4,000개 이상의 공항 관측 자료 및 예보 (METAR 및 TAF 보고).

지도상에서 검색 가능한 기상관측소가 노란 점과 빨간 점으로 표시되어 있습니다.

기상관측소 명을 보려면 표시 위로 마우스를 이동하세요.

날씨 관측과 예보를 보려면 클릭하세요.

지도 변경 : 확대하려면 엑스 표시가 있는 녹색 버튼, 축소하려면 빼기 표시가 있는 녹색 버튼, 다음 페이지의 지도를 보려면 녹색 화살표를 클릭하세요.


METAR-TAF: